createdAt,value
2019-01-19T00:01:40.569Z,16.83
2019-01-19T00:04:43.018Z,17.70
2019-01-19T00:07:41.433Z,16.60
2019-01-19T00:10:54.360Z,16.43
2019-01-19T00:13:46.155Z,16.90
2019-01-19T00:17:13.743Z,16.07
2019-01-19T00:20:28.265Z,17.33
2019-01-19T00:23:54.679Z,17.23
2019-01-19T00:27:17.780Z,17.53
2019-01-19T00:30:13.255Z,16.07
2019-01-19T00:33:14.222Z,15.57
2019-01-19T00:36:20.286Z,16.60
2019-01-19T00:39:20.895Z,15.43
2019-01-19T00:42:10.561Z,15.70
2019-01-19T00:45:20.116Z,16.00
2019-01-19T00:48:39.851Z,16.83
2019-01-19T00:51:59.370Z,15.67
2019-01-19T00:54:46.394Z,16.13
2019-01-19T00:58:00.434Z,16.07
2019-01-19T01:00:49.409Z,17.27
2019-01-19T01:03:51.314Z,16.13
2019-01-19T01:06:58.608Z,15.63
2019-01-19T01:10:04.525Z,16.27
2019-01-19T01:13:24.804Z,16.43
2019-01-19T01:16:46.338Z,17.27
2019-01-19T01:19:25.009Z,17.80
2019-01-19T01:22:32.196Z,15.87
2019-01-19T01:25:27.960Z,17.60
2019-01-19T01:28:27.177Z,17.33
2019-01-19T01:31:57.006Z,16.57
2019-01-19T01:34:59.386Z,16.70
2019-01-19T01:37:57.897Z,16.77
2019-01-19T01:40:59.609Z,17.50
2019-01-19T01:43:44.921Z,15.43
2019-01-19T01:47:01.382Z,16.50
2019-01-19T01:49:49.454Z,16.47
2019-01-19T01:53:13.058Z,15.50
2019-01-19T01:55:53.680Z,15.70
2019-01-19T01:58:50.217Z,16.03
2019-01-19T02:01:54.365Z,16.47
2019-01-19T02:05:02.541Z,16.23
2019-01-19T02:08:07.816Z,16.67
2019-01-19T02:11:26.499Z,15.23
2019-01-19T02:14:42.002Z,18.43
2019-01-19T02:17:55.205Z,16.03
2019-01-19T02:21:05.737Z,15.70
2019-01-19T02:23:51.411Z,17.10
2019-01-19T02:27:00.105Z,16.80
2019-01-19T02:30:08.304Z,17.63
2019-01-19T02:33:26.105Z,16.93
2019-01-19T02:36:38.748Z,18.20
2019-01-19T02:39:43.626Z,19.37
2019-01-19T02:43:06.035Z,16.17
2019-01-19T02:45:58.210Z,15.27
2019-01-19T02:48:58.055Z,15.50
2019-01-19T02:51:38.843Z,16.47
2019-01-19T02:54:48.184Z,15.50
2019-01-19T02:57:45.511Z,15.87
2019-01-19T03:00:40.884Z,16.60
2019-01-19T03:04:00.360Z,16.27
2019-01-19T03:07:20.820Z,16.63
2019-01-19T03:10:14.456Z,16.43
2019-01-19T03:13:26.424Z,17.50
2019-01-19T03:16:36.497Z,16.40
2019-01-19T03:19:54.211Z,16.10
2019-01-19T03:23:07.705Z,16.67
2019-01-19T03:26:18.532Z,17.10
2019-01-19T03:29:17.848Z,16.80
2019-01-19T03:32:35.249Z,15.47
2019-01-19T03:35:41.768Z,17.17
2019-01-19T03:38:37.410Z,15.23
2019-01-19T03:41:31.276Z,16.40
2019-01-19T03:44:35.714Z,16.00
2019-01-19T03:47:31.741Z,15.80
2019-01-19T03:50:29.188Z,16.10
2019-01-19T03:53:42.738Z,18.43
2019-01-19T03:56:51.404Z,15.77
2019-01-19T03:59:39.207Z,16.50
2019-01-19T04:02:58.133Z,15.97
2019-01-19T04:06:02.405Z,16.93
2019-01-19T04:09:18.279Z,15.53
2019-01-19T04:12:28.226Z,16.07
2019-01-19T04:15:32.562Z,16.17
2019-01-19T04:18:31.145Z,15.87
2019-01-19T04:21:39.084Z,15.97
2019-01-19T04:24:25.975Z,17.37
2019-01-19T04:26:58.034Z,16.07
2019-01-19T04:29:27.948Z,15.03
2019-01-19T04:31:58.684Z,15.77
2019-01-19T04:34:29.264Z,16.17
2019-01-19T04:37:00.775Z,16.30
2019-01-19T04:39:31.153Z,17.00
2019-01-19T04:42:01.258Z,15.77
2019-01-19T04:44:31.068Z,16.87
2019-01-19T04:47:01.416Z,17.17
2019-01-19T04:49:31.753Z,16.97
2019-01-19T04:52:01.542Z,16.23
2019-01-19T04:54:31.766Z,17.03
2019-01-19T04:57:01.840Z,15.70
2019-01-19T04:59:31.716Z,15.70
2019-01-19T05:02:01.529Z,16.10
2019-01-19T05:04:32.660Z,16.67
2019-01-19T05:07:02.510Z,15.63
2019-01-19T05:09:41.493Z,15.60
2019-01-19T05:12:11.253Z,17.13
2019-01-19T05:14:41.270Z,17.10
2019-01-19T05:17:14.609Z,16.20
2019-01-19T05:19:44.524Z,16.13
2019-01-19T05:22:14.394Z,15.80
2019-01-19T05:25:06.462Z,14.77
2019-01-19T05:27:37.269Z,15.80
2019-01-19T05:30:10.411Z,17.40
2019-01-19T05:32:51.555Z,16.90
2019-01-19T05:35:21.635Z,18.30
2019-01-19T05:37:52.703Z,17.03
2019-01-19T05:40:22.904Z,17.50
2019-01-19T05:42:54.180Z,16.17
2019-01-19T05:45:24.028Z,17.07
2019-01-19T05:47:57.139Z,15.97
2019-01-19T05:50:27.084Z,16.87
2019-01-19T05:53:02.343Z,15.77
2019-01-19T05:55:33.268Z,17.03
2019-01-19T05:58:03.153Z,15.70
2019-01-19T06:00:35.264Z,16.73
2019-01-19T06:03:06.734Z,18.07
2019-01-19T06:05:38.115Z,17.10
2019-01-19T06:08:07.945Z,17.40
2019-01-19T06:10:38.413Z,15.53
2019-01-19T06:13:08.299Z,15.40
2019-01-19T06:15:38.146Z,15.80
2019-01-19T06:18:08.527Z,17.07
2019-01-19T06:20:38.505Z,14.73
2019-01-19T06:23:08.353Z,15.40
2019-01-19T06:25:38.626Z,16.07
2019-01-19T06:28:08.534Z,16.40
2019-01-19T06:30:38.594Z,15.03
2019-01-19T06:33:08.507Z,15.40
2019-01-19T06:35:38.471Z,14.60
2019-01-19T06:38:08.429Z,15.90
2019-01-19T06:40:48.214Z,15.27
2019-01-19T06:43:18.148Z,16.17
2019-01-19T06:45:47.966Z,17.17
2019-01-19T06:48:18.228Z,16.03
2019-01-19T06:50:48.099Z,17.33
2019-01-19T06:53:18.172Z,16.27
2019-01-19T06:55:51.666Z,14.40
2019-01-19T06:58:21.512Z,16.47
2019-01-19T07:00:51.444Z,16.67
2019-01-19T07:03:21.415Z,15.83
2019-01-19T07:05:51.338Z,15.93
2019-01-19T07:08:21.347Z,15.17
2019-01-19T07:10:54.739Z,16.13
2019-01-19T07:13:25.580Z,15.93
2019-01-19T07:15:55.505Z,16.60
2019-01-19T07:18:25.368Z,15.60
2019-01-19T07:20:55.544Z,14.90
2019-01-19T07:23:25.530Z,14.70
2019-01-19T07:25:56.199Z,16.07
2019-01-19T07:28:26.417Z,15.67
2019-01-19T07:30:56.507Z,15.50
2019-01-19T07:33:26.559Z,14.47
2019-01-19T07:35:56.978Z,14.27
2019-01-19T07:38:27.383Z,15.53
2019-01-19T07:41:01.169Z,14.37
2019-01-19T07:43:32.180Z,15.13
2019-01-19T07:46:02.313Z,15.47
2019-01-19T07:48:32.585Z,15.87
2019-01-19T07:51:02.395Z,13.40
2019-01-19T07:53:32.395Z,14.53
2019-01-19T07:56:08.646Z,14.13
2019-01-19T07:58:38.972Z,14.90
2019-01-19T08:01:33.365Z,13.73
2019-01-19T08:04:09.345Z,14.13
2019-01-19T08:06:39.578Z,12.93
2019-01-19T08:09:12.364Z,13.30
2019-01-19T08:11:43.817Z,16.57
2019-01-19T08:14:13.843Z,30.00
2019-01-19T08:16:43.812Z,23.67
2019-01-19T08:19:13.863Z,30.23
2019-01-19T08:21:43.978Z,16.87
2019-01-19T08:24:14.410Z,16.77
2019-01-19T08:26:44.549Z,16.97
2019-01-19T08:29:14.832Z,17.03
2019-01-19T08:31:46.341Z,15.00
2019-01-19T08:34:19.438Z,19.27
2019-01-19T08:36:49.336Z,21.23
2019-01-19T08:39:22.982Z,15.33
2019-01-19T08:42:00.599Z,14.00
2019-01-19T08:44:30.564Z,12.93
2019-01-19T08:47:01.171Z,14.40
2019-01-19T08:49:31.382Z,14.03
2019-01-19T08:52:03.423Z,10.30
2019-01-19T08:54:36.496Z,12.50
2019-01-19T08:57:07.134Z,10.83
2019-01-19T08:59:37.334Z,11.40
2019-01-19T09:02:11.833Z,10.40
2019-01-19T09:04:49.880Z,12.70
2019-01-19T09:07:19.898Z,10.30
2019-01-19T09:09:51.276Z,9.40
2019-01-19T09:12:21.969Z,12.87
2019-01-19T09:14:54.720Z,11.87
2019-01-19T09:17:24.729Z,12.30
2019-01-19T09:19:56.348Z,11.00
2019-01-19T09:22:26.645Z,11.57
2019-01-19T09:24:56.929Z,10.47
2019-01-19T09:27:27.531Z,11.97
2019-01-19T09:30:00.561Z,12.33
2019-01-19T09:32:31.524Z,11.17
2019-01-19T09:35:05.055Z,9.93
2019-01-19T09:38:15.084Z,10.40
2019-01-19T09:40:51.058Z,10.20
2019-01-19T09:43:21.054Z,10.97
2019-01-19T09:45:56.888Z,11.27
2019-01-19T09:48:31.463Z,10.93
2019-01-19T09:51:06.623Z,14.77
2019-01-19T09:53:41.138Z,18.70
2019-01-19T09:56:18.592Z,16.43
2019-01-19T09:58:49.002Z,13.70
2019-01-19T10:01:23.813Z,9.50
2019-01-19T10:03:53.941Z,11.77
2019-01-19T10:06:27.313Z,9.93
2019-01-19T10:08:58.126Z,9.97
2019-01-19T10:11:33.204Z,10.80
2019-01-19T10:14:23.816Z,10.60
2019-01-19T10:17:01.282Z,9.67
2019-01-19T10:22:24.118Z,9.00
2019-01-19T10:24:54.434Z,9.13
2019-01-19T10:27:24.362Z,8.50
2019-01-19T10:30:09.225Z,5.47
2019-01-19T10:32:39.347Z,6.70
2019-01-19T10:36:02.686Z,6.63
2019-01-19T10:37:47.884Z,5.00
2019-01-19T10:40:21.134Z,5.30
2019-01-19T10:45:41.334Z,3.80
2019-01-19T10:48:14.178Z,4.17
2019-01-19T10:50:45.478Z,3.70
2019-01-19T10:53:19.513Z,3.40
2019-01-19T10:55:50.121Z,3.93
2019-01-19T10:58:20.622Z,5.53
2019-01-19T11:00:50.605Z,3.47
2019-01-19T11:03:20.655Z,3.30
2019-01-19T11:05:53.974Z,3.83
2019-01-19T11:08:24.109Z,6.70
2019-01-19T11:11:00.288Z,28.37
2019-01-19T11:13:30.425Z,52.13
2019-01-19T11:16:05.351Z,75.13
2019-01-19T11:18:35.407Z,35.37
2019-01-19T11:21:12.150Z,118.03
2019-01-19T11:23:45.373Z,48.20
2019-01-19T11:26:18.261Z,24.10
2019-01-19T11:28:53.099Z,44.20
2019-01-19T11:31:29.153Z,20.63
2019-01-19T11:33:59.326Z,18.10
2019-01-19T11:36:29.382Z,12.63
2019-01-19T11:39:08.298Z,13.07
2019-01-19T11:41:33.809Z,6.37
2019-01-19T11:44:06.236Z,6.23
2019-01-19T11:46:36.227Z,5.97
2019-01-19T11:49:06.624Z,5.93
2019-01-19T11:51:36.746Z,3.93
2019-01-19T11:54:07.302Z,6.07
2019-01-19T11:56:37.215Z,8.70
2019-01-19T11:59:11.109Z,4.53
2019-01-19T12:01:45.775Z,5.07
2019-01-19T12:04:15.803Z,5.57
2019-01-19T12:06:49.974Z,6.53
2019-01-19T12:09:22.729Z,5.33
2019-01-19T12:11:54.451Z,4.30
2019-01-19T12:14:24.943Z,4.70
2019-01-19T12:16:55.469Z,6.67
2019-01-19T12:19:25.972Z,7.13
2019-01-19T12:22:19.708Z,16.30
2019-01-19T12:24:49.657Z,24.43
2019-01-19T12:27:19.695Z,5.50
2019-01-19T12:29:58.113Z,5.10
2019-01-19T12:32:29.647Z,5.33
2019-01-19T12:34:59.682Z,8.13
2019-01-19T12:37:29.989Z,5.67
2019-01-19T12:39:59.850Z,8.90
2019-01-19T12:42:31.576Z,9.00
2019-01-19T12:45:13.732Z,14.87
2019-01-19T12:48:00.314Z,15.93
2019-01-19T12:50:27.457Z,5.87
2019-01-19T12:53:06.504Z,8.50
2019-01-19T12:55:44.212Z,13.23
2019-01-19T12:58:21.394Z,4.53
2019-01-19T13:00:55.461Z,7.00
2019-01-19T13:03:27.178Z,4.87
2019-01-19T13:06:28.911Z,6.40
2019-01-19T13:08:58.793Z,6.20
2019-01-19T13:12:20.826Z,4.53
2019-01-19T13:15:39.553Z,6.60
2019-01-19T13:18:55.635Z,4.93
2019-01-19T13:22:23.319Z,5.47
2019-01-19T13:25:22.928Z,6.83
2019-01-19T13:28:23.408Z,6.07
2019-01-19T13:31:22.228Z,9.37
2019-01-19T13:34:21.851Z,17.20
2019-01-19T13:37:26.431Z,7.23
2019-01-19T13:40:34.274Z,5.50
2019-01-19T13:44:01.859Z,7.43
2019-01-19T13:47:08.841Z,4.80
2019-01-19T13:50:22.211Z,4.37
2019-01-19T13:53:27.421Z,4.70
2019-01-19T13:56:42.840Z,4.40
2019-01-19T13:59:28.087Z,6.77
2019-01-19T14:02:43.154Z,5.17
2019-01-19T14:06:13.664Z,5.67
2019-01-19T14:09:28.557Z,4.90
2019-01-19T14:12:27.339Z,4.97
2019-01-19T14:15:34.780Z,4.50
2019-01-19T14:18:45.377Z,3.83
2019-01-19T14:22:06.182Z,3.87
2019-01-19T14:25:06.953Z,4.33
2019-01-19T14:28:03.370Z,3.20
2019-01-19T14:31:16.580Z,7.53
2019-01-19T14:34:43.967Z,3.30
2019-01-19T14:37:56.596Z,3.13
2019-01-19T14:40:59.942Z,3.40
2019-01-19T14:43:50.871Z,9.27
2019-01-19T14:46:51.573Z,20.17
2019-01-19T14:50:16.370Z,17.73
2019-01-19T14:53:18.150Z,9.90
2019-01-19T14:56:11.944Z,4.07
2019-01-19T14:59:31.244Z,4.77
2019-01-19T15:02:25.536Z,4.47
2019-01-19T15:05:38.747Z,5.00
2019-01-19T15:09:07.774Z,5.63
2019-01-19T15:12:32.166Z,38.07
2019-01-19T15:15:36.940Z,23.17
2019-01-19T15:19:06.986Z,15.67
2019-01-19T15:22:16.205Z,18.10
2019-01-19T15:25:19.999Z,12.97
2019-01-19T15:28:37.104Z,11.40
2019-01-19T15:31:39.803Z,8.20
2019-01-19T15:34:46.314Z,12.77
2019-01-19T15:37:56.491Z,18.07
2019-01-19T15:41:02.777Z,15.93
2019-01-19T15:44:17.012Z,7.60
2019-01-19T15:47:30.367Z,10.20
2019-01-19T15:51:04.161Z,7.10
2019-01-19T15:54:01.032Z,11.83
2019-01-19T15:57:23.811Z,6.00
2019-01-19T16:01:10.438Z,4.80
2019-01-19T16:04:54.627Z,5.97
2019-01-19T16:08:04.930Z,7.37
2019-01-19T16:11:13.232Z,11.40
2019-01-19T16:14:28.001Z,9.20
2019-01-19T16:17:31.362Z,7.27
2019-01-19T16:20:45.827Z,7.13
2019-01-19T16:23:54.272Z,6.30
2019-01-19T16:27:17.647Z,7.17
2019-01-19T16:30:44.751Z,8.50
2019-01-19T16:33:54.023Z,11.40
2019-01-19T16:36:55.036Z,10.13
2019-01-19T16:40:09.617Z,20.90
2019-01-19T16:43:24.072Z,9.37
2019-01-19T16:46:28.854Z,8.13
2019-01-19T16:49:51.500Z,15.30
2019-01-19T16:52:37.721Z,23.83
2019-01-19T16:55:34.958Z,12.53
2019-01-19T16:58:47.408Z,7.50
2019-01-19T17:02:04.600Z,7.07
2019-01-19T17:05:18.411Z,5.83
2019-01-19T17:08:24.372Z,5.57
2019-01-19T17:11:37.854Z,4.50
2019-01-19T17:14:46.937Z,5.03
2019-01-19T17:17:57.467Z,4.67
2019-01-19T17:21:07.140Z,4.33
2019-01-19T17:24:40.291Z,4.90
2019-01-19T17:28:12.005Z,4.80
2019-01-19T17:31:06.891Z,4.30
2019-01-19T17:34:46.079Z,4.60
2019-01-19T17:37:38.485Z,5.23
2019-01-19T17:40:51.261Z,5.23
2019-01-19T17:43:54.101Z,5.77
2019-01-19T17:46:53.636Z,6.27
2019-01-19T17:50:13.035Z,6.37
2019-01-19T17:53:37.428Z,5.20
2019-01-19T17:56:37.236Z,5.07
2019-01-19T18:00:08.035Z,6.37
2019-01-19T18:03:22.394Z,6.00
2019-01-19T18:06:11.144Z,5.90
2019-01-19T18:09:29.059Z,5.80
2019-01-19T18:12:50.522Z,6.03
2019-01-19T18:16:03.914Z,5.57
2019-01-19T18:19:14.201Z,7.03
2019-01-19T18:23:00.993Z,6.00
2019-01-19T18:25:40.826Z,6.10
2019-01-19T18:28:49.634Z,5.83
2019-01-19T18:35:57.365Z,7.37
2019-01-19T18:38:54.632Z,8.20
2019-01-19T18:42:39.457Z,7.77
2019-01-19T18:54:24.225Z,7.83
2019-01-19T18:57:51.080Z,8.17
2019-01-19T19:04:45.141Z,7.03
2019-01-19T19:08:12.612Z,6.60
2019-01-19T19:11:18.132Z,6.37
2019-01-19T19:14:51.100Z,10.10
2019-01-19T19:18:17.095Z,7.80
2019-01-19T19:21:36.314Z,9.40
2019-01-19T19:24:45.425Z,8.50
2019-01-19T19:28:06.894Z,8.50
2019-01-19T19:31:10.645Z,8.27
2019-01-19T19:34:47.364Z,8.67
2019-01-19T19:38:12.863Z,9.77
2019-01-19T19:41:43.403Z,11.77
2019-01-19T19:45:26.655Z,10.53
2019-01-19T19:48:28.488Z,11.87
2019-01-19T19:51:50.651Z,11.77
2019-01-19T19:54:38.122Z,12.83
2019-01-19T19:57:14.302Z,13.23
2019-01-19T20:00:21.465Z,13.00
2019-01-19T20:03:13.657Z,12.53
2019-01-19T20:06:27.547Z,15.73
2019-01-19T20:09:04.806Z,13.60
2019-01-19T20:11:43.186Z,12.77
2019-01-19T20:14:15.373Z,13.20
2019-01-19T20:17:09.190Z,12.93
2019-01-19T20:20:00.633Z,12.30
2019-01-19T20:22:43.539Z,13.97
2019-01-19T20:25:28.117Z,12.03
2019-01-19T20:28:06.641Z,11.67
2019-01-19T20:30:52.259Z,12.03
2019-01-19T20:33:35.522Z,12.37
2019-01-19T20:36:17.066Z,12.37
2019-01-19T20:39:04.795Z,11.77
2019-01-19T20:41:36.745Z,12.60
2019-01-19T20:44:24.898Z,12.67
2019-01-19T20:47:09.195Z,13.00
2019-01-19T20:49:52.618Z,13.70
2019-01-19T20:52:24.520Z,12.73
2019-01-19T20:55:03.656Z,12.07
2019-01-19T20:57:37.064Z,12.63
2019-01-19T21:00:21.505Z,12.33
2019-01-19T21:02:57.729Z,12.37
2019-01-19T21:30:17.450Z,10.70
2019-01-19T21:33:26.101Z,9.43
2019-01-19T21:40:11.912Z,9.90
2019-01-19T21:43:13.712Z,8.93
2019-01-19T21:49:45.883Z,10.13
2019-01-19T22:00:33.174Z,9.97
2019-01-19T22:04:16.615Z,9.40
2019-01-19T22:07:29.838Z,10.47
2019-01-19T22:14:07.694Z,9.80
2019-01-19T22:20:40.937Z,11.27
2019-01-19T22:23:25.222Z,9.97
2019-01-19T22:27:39.535Z,10.57
2019-01-19T22:29:49.481Z,10.97
2019-01-19T22:32:54.249Z,10.80
2019-01-19T22:47:58.784Z,14.43
2019-01-19T22:51:18.219Z,13.27
2019-01-19T22:54:21.151Z,11.17
2019-01-19T22:57:09.015Z,11.23
2019-01-19T23:00:40.200Z,10.77
2019-01-19T23:04:20.106Z,11.60
2019-01-19T23:14:33.754Z,9.93
2019-01-19T23:20:43.840Z,10.00
2019-01-19T23:23:35.744Z,10.57
2019-01-19T23:26:24.303Z,9.43
2019-01-19T23:29:09.400Z,10.27
2019-01-19T23:31:40.959Z,10.40
2019-01-19T23:35:00.725Z,10.03
2019-01-19T23:38:12.173Z,10.03
2019-01-19T23:40:49.604Z,9.40
2019-01-19T23:43:29.727Z,9.70
2019-01-19T23:46:10.236Z,10.70
2019-01-19T23:49:16.483Z,9.70
2019-01-19T23:52:10.728Z,9.63
2019-01-19T23:55:13.575Z,9.40
2019-01-19T23:58:03.230Z,10.40
